Time;durP1;ratioP1;P1;durP2;ratioP2;P2;SDS_P1;SDS_P2;PMS_P1;PMS_P2;Temp;Humidity;BMP_temperature;BMP_pressure;BME280_temperature;BME280_humidity;BME280_pressure;Samples;Min_cycle;Max_cycle;Signal;HPM_P1;HPM_P2
2023/06/08 00:00:13;;;;;;;20.02;10.10;;;27.70;99.90;;;;;;5034308;28;20429;-68
2023/06/08 00:02:40;;;;;;;60.63;40.78;;;27.60;99.90;;;;;;5034382;28;20110;-70
2023/06/08 00:05:13;;;;;;;24.75;14.00;;;;;;;;;;5034570;28;20033;-71
2023/06/08 00:07:42;;;;;;;60.15;32.83;;;;;;;;;;5034327;28;20033;-70
2023/06/08 00:10:10;;;;;;;68.65;37.22;;;;;;;;;;5033970;28;20025;-70
2023/06/08 00:12:37;;;;;;;87.43;45.83;;;;;;;;;;5034570;28;20100;-70
2023/06/08 00:15:05;;;;;;;123.68;71.25;;;;;;;;;;5034247;28;20028;-71
2023/06/08 00:17:31;;;;;;;48.72;25.27;;;;;;;;;;5034062;28;20028;-70
2023/06/08 00:19:59;;;;;;;31.77;15.38;;;;;;;;;;5034137;28;20108;-70
2023/06/08 00:22:27;;;;;;;25.23;13.38;;;;;;;;;;5034099;28;20033;-71
2023/06/08 00:24:54;;;;;;;39.22;19.60;;;;;;;;;;5033986;28;20053;-71
2023/06/08 00:27:21;;;;;;;42.25;22.45;;;;;;;;;;5034075;28;20386;-70
2023/06/08 00:29:47;;;;;;;29.85;15.45;;;;;;;;;;5033773;28;20037;-70
2023/06/08 00:32:14;;;;;;;28.98;14.68;;;;;;;;;;5033813;28;20489;-69
2023/06/08 00:34:41;;;;;;;23.75;10.63;;;;;;;;;;5033895;28;20061;-70
2023/06/08 00:37:08;;;;;;;19.60;10.55;;;;;;;;;;5034111;28;20026;-69
2023/06/08 00:39:34;;;;;;;18.13;11.00;;;;;;;;;;5033421;28;20025;-69
2023/06/08 00:42:01;;;;;;;23.77;11.07;;;;;;;;;;5033842;28;20463;-70
2023/06/08 00:44:28;;;;;;;19.65;10.00;;;;;;;;;;5033664;28;20099;-70
2023/06/08 00:46:55;;;;;;;22.85;8.23;;;;;;;;;;5033685;28;20411;-70
2023/06/08 00:49:22;;;;;;;13.63;8.95;;;;;;;;;;5033532;28;20363;-69
2023/06/08 00:51:48;;;;;;;12.77;8.65;;;;;;;;;;5033382;28;20042;-70
2023/06/08 00:54:16;;;;;;;14.20;8.57;;;;;;;;;;5033176;28;20374;-70
2023/06/08 00:56:48;;;;;;;14.57;8.40;;;;;;;;;;5033360;28;20549;-69
2023/06/08 00:59:14;;;;;;;;;;;;;;;;;;5033913;28;20033;-70
2023/06/08 01:01:41;;;;;;;17.85;10.98;;;;;;;;;;5026827;28;19915;-70
2023/06/08 01:04:09;;;;;;;13.07;9.07;;;;;;;;;;5015330;28;20026;-69
2023/06/08 01:06:36;;;;;;;16.95;11.00;;;;;;;;;;5013753;28;20056;-70
2023/06/08 01:09:11;;;;;;;24.67;15.00;;;;;;;;;;5013568;28;20387;-69
2023/06/08 01:11:41;;;;;;;29.88;17.50;;;;;;;;;;5013420;28;20030;-69
2023/06/08 01:14:17;;;;;;;20.98;12.70;;;;;;;;;;5013653;28;20030;-68
2023/06/08 01:16:49;;;;;;;16.00;8.10;;;;;;;;;;5024847;28;20025;-75
2023/06/08 01:19:18;;;;;;;12.27;8.38;;;;;;;;;;5033252;28;20072;-74
2023/06/08 01:22:04;;;;;;;14.65;7.78;;;;;;;;;;5032877;28;20030;-67
2023/06/08 01:24:35;;;;;;;127.45;85.72;;;;;;;;;;5024455;28;20413;-74
2023/06/08 01:27:07;;;;;;;180.90;143.63;;;;;;;;;;5033031;28;20017;-71
2023/06/08 01:29:34;;;;;;;15.10;10.13;;;;;;;;;;5032899;28;20034;-71
2023/06/08 01:32:01;;;;;;;19.38;9.52;;;;;;;;;;5033038;28;20026;-69
2023/06/08 01:34:28;;;;;;;16.58;11.40;;;;;;;;;;5032961;28;20017;-68
2023/06/08 01:36:55;;;;;;;15.15;10.75;;;;;;;;;;5033198;28;20163;-68
2023/06/08 01:39:23;;;;;;;14.55;9.82;;;;;;;;;;5033006;28;20105;-68
2023/06/08 01:41:54;;;;;;;13.80;10.27;;;;;;;;;;5032880;28;20021;-68
2023/06/08 01:44:21;;;;;;;19.17;10.65;;;;;;;;;;5026491;28;20025;-69
2023/06/08 01:46:52;;;;;;;20.05;11.32;;;;;;;;;;5021195;28;20379;-68
2023/06/08 01:49:20;;;;;;;22.55;12.00;;;;;;;;;;5013088;28;20064;-67
2023/06/08 01:51:47;;;;;;;23.23;12.45;;;;;;;;;;5013158;28;20029;-68
2023/06/08 01:54:15;;;;;;;17.38;12.32;;;;;;;;;;5013252;28;20122;-73
2023/06/08 01:56:42;;;;;;;25.85;12.73;;;;;;;;;;5022217;28;20018;-69
2023/06/08 01:59:08;;;;;;;23.98;14.07;;;;;;;;;;5032499;28;20022;-70
2023/06/08 02:01:35;;;;;;;21.45;12.10;;;;;;;;;;5032430;28;20028;-70
2023/06/08 02:04:02;;;;;;;19.88;10.82;;;27.90;99.90;;;;;;5032200;28;20030;-69
2023/06/08 02:06:28;;;;;;;19.00;10.95;;;27.90;99.90;;;;;;5032372;28;20017;-69
2023/06/08 02:08:55;;;;;;;15.77;9.48;;;27.90;99.90;;;;;;5032367;28;20018;-69
2023/06/08 02:11:22;;;;;;;16.58;8.80;;;27.90;99.90;;;;;;5032178;28;20045;-69
2023/06/08 02:13:49;;;;;;;20.50;9.30;;;28.00;99.90;;;;;;5032405;28;20109;-69
2023/06/08 02:16:18;;;;;;;14.77;8.82;;;28.00;99.90;;;;;;5029674;28;20053;-69
2023/06/08 02:18:46;;;;;;;15.13;9.95;;;27.90;99.90;;;;;;5031225;28;20025;-69
2023/06/08 02:21:12;;;;;;;15.88;8.80;;;28.00;99.90;;;;;;5036372;28;20429;-69
2023/06/08 02:23:39;;;;;;;17.58;8.32;;;28.20;99.90;;;;;;5033631;28;20068;-68
2023/06/08 02:26:08;;;;;;;19.00;9.55;;;28.10;99.90;;;;;;5036174;28;20029;-68
2023/06/08 02:28:34;;;;;;;16.75;8.93;;;28.10;99.90;;;;;;5036321;28;20033;-69
2023/06/08 02:31:03;;;;;;;12.25;8.75;;;28.30;99.90;;;;;;5036100;28;20037;-68
2023/06/08 02:33:29;;;;;;;15.00;9.48;;;28.40;99.90;;;;;;5036429;28;20018;-69
2023/06/08 02:35:56;;;;;;;17.00;8.15;;;28.50;99.90;;;;;;5035983;28;20414;-68
2023/06/08 02:38:23;;;;;;;15.13;7.95;;;28.50;99.90;;;;;;5034799;28;20025;-71
2023/06/08 02:40:52;;;;;;;13.63;7.80;;;28.70;99.90;;;;;;5034435;28;20437;-74
2023/06/08 02:43:19;;;;;;;15.27;7.93;;;28.70;99.90;;;;;;5035075;28;20121;-70
2023/06/08 02:45:46;;;;;;;13.68;8.88;;;28.70;99.90;;;;;;5036340;28;20018;-69
2023/06/08 02:48:13;;;;;;;20.90;14.68;;;28.80;99.90;;;;;;5035943;28;20057;-69
2023/06/08 02:50:39;;;;;;;16.27;9.60;;;28.80;99.90;;;;;;5036109;28;20063;-67
2023/06/08 02:53:06;;;;;;;13.07;9.02;;;28.80;99.90;;;;;;5036195;28;20026;-68
2023/06/08 02:55:36;;;;;;;21.25;12.70;;;28.90;99.90;;;;;;5035887;28;20449;-68
2023/06/08 02:58:03;;;;;;;12.20;8.63;;;28.90;99.90;;;;;;5036383;28;20431;-71
2023/06/08 03:00:30;;;;;;;19.00;9.57;;;29.00;99.90;;;;;;5036038;28;20104;-70
2023/06/08 03:03:01;;;;;;;15.90;9.25;;;29.00;99.90;;;;;;5035744;28;20025;-72
2023/06/08 03:05:29;;;;;;;45.97;32.10;;;29.10;99.90;;;;;;5035716;28;20030;-70
2023/06/08 03:07:58;;;;;;;31.08;17.92;;;29.30;99.90;;;;;;5036251;28;20544;-69
2023/06/08 03:10:26;;;;;;;17.60;12.35;;;29.20;99.90;;;;;;5035847;28;20043;-71
2023/06/08 03:12:52;;;;;;;35.65;28.80;;;29.20;99.90;;;;;;5035750;28;20024;-70
2023/06/08 03:15:22;;;;;;;22.30;15.75;;;29.30;99.90;;;;;;5024114;28;20018;-71
2023/06/08 03:17:51;;;;;;;17.88;11.98;;;29.40;99.90;;;;;;5036053;28;20045;-69
2023/06/08 03:20:17;;;;;;;43.60;33.92;;;29.30;99.90;;;;;;5035004;28;20025;-70
2023/06/08 03:22:46;;;;;;;54.95;40.35;;;29.50;99.90;;;;;;5035093;28;20025;-69
2023/06/08 03:25:15;;;;;;;26.75;18.83;;;29.60;99.90;;;;;;5035200;28;20029;-69
2023/06/08 03:27:43;;;;;;;33.25;21.40;;;29.60;99.90;;;;;;5035353;28;20033;-69
2023/06/08 03:30:11;;;;;;;16.52;12.02;;;29.80;99.90;;;;;;5034679;28;20536;-68
2023/06/08 03:32:38;;;;;;;11.68;7.88;;;29.90;99.90;;;;;;5035066;28;20026;-67
2023/06/08 03:35:06;;;;;;;12.48;8.50;;;30.00;99.90;;;;;;5035230;28;20092;-67
2023/06/08 03:37:32;;;;;;;13.57;8.15;;;29.90;99.90;;;;;;5035371;28;20113;-70
2023/06/08 03:39:59;;;;;;;14.77;8.05;;;29.90;99.90;;;;;;5035369;28;20356;-67
2023/06/08 03:42:26;;;;;;;12.55;8.45;;;29.90;99.90;;;;;;5035078;28;20026;-68
2023/06/08 03:44:52;;;;;;;19.00;8.70;;;29.90;99.90;;;;;;5034781;28;20018;-70
2023/06/08 03:47:19;;;;;;;10.40;6.72;;;29.90;99.90;;;;;;5034983;28;20048;-70
2023/06/08 03:49:46;;;;;;;12.02;7.22;;;29.90;99.90;;;;;;5032712;28;20121;-71
2023/06/08 03:52:13;;;;;;;10.45;7.00;;;29.90;99.90;;;;;;5025014;28;20360;-70
2023/06/08 03:54:39;;;;;;;7.65;5.68;;;30.00;99.90;;;;;;5015134;28;20025;-71
2023/06/08 03:57:06;;;;;;;13.38;6.38;;;29.90;99.90;;;;;;5014984;28;20014;-71
2023/06/08 03:59:33;;;;;;;9.07;5.50;;;29.90;99.90;;;;;;5014910;28;20152;-71
2023/06/08 04:02:00;;;;;;;11.75;5.90;;;30.00;99.90;;;;;;5014815;28;20026;-71
2023/06/08 04:04:29;;;;;;;11.02;5.75;;;30.00;99.90;;;;;;5014850;28;20026;-71
2023/06/08 04:07:00;;;;;;;10.82;7.22;;;29.90;99.90;;;;;;5014668;28;20026;-70
2023/06/08 04:09:28;;;;;;;18.27;8.35;;;30.00;99.90;;;;;;5014792;28;20025;-69
2023/06/08 04:11:56;;;;;;;13.75;7.45;;;29.90;99.90;;;;;;5014632;28;20546;-70
2023/06/08 04:14:24;;;;;;;13.45;7.43;;;29.90;99.90;;;;;;5014485;28;20053;-71
2023/06/08 04:16:51;;;;;;;12.60;6.97;;;30.00;99.90;;;;;;5014976;28;20026;-71
2023/06/08 04:19:17;;;;;;;11.15;6.93;;;30.00;99.90;;;;;;5020237;28;20021;-70
2023/06/08 04:21:44;;;;;;;14.75;8.32;;;30.00;99.90;;;;;;5030649;28;20037;-70
2023/06/08 04:24:11;;;;;;;12.70;7.65;;;30.00;99.90;;;;;;5030651;28;20028;-70
2023/06/08 04:26:37;;;;;;;15.63;7.70;;;30.00;99.90;;;;;;5032921;28;20077;-71
2023/06/08 04:29:04;;;;;;;11.15;6.88;;;30.00;99.90;;;;;;5032806;28;20489;-69
2023/06/08 04:31:31;;;;;;;11.07;7.05;;;30.10;99.90;;;;;;5032656;28;20099;-69
2023/06/08 04:33:57;;;;;;;11.52;7.07;;;30.20;99.90;;;;;;5032729;28;20394;-70
2023/06/08 04:36:25;;;;;;;13.50;6.70;;;30.10;99.90;;;;;;5032683;28;20021;-70
2023/06/08 04:38:52;;;;;;;9.43;6.80;;;30.10;99.90;;;;;;5032458;28;20021;-70
2023/06/08 04:41:18;;;;;;;10.32;6.97;;;30.10;99.90;;;;;;5032524;28;20024;-70
2023/06/08 04:43:49;;;;;;;11.63;7.40;;;30.20;99.90;;;;;;5032699;28;20104;-71
2023/06/08 04:46:16;;;;;;;10.45;6.32;;;30.10;99.90;;;;;;5032863;28;20018;-69
2023/06/08 04:48:43;;;;;;;9.63;6.95;;;30.20;99.90;;;;;;5030318;28;20024;-71
2023/06/08 04:51:10;;;;;;;11.38;6.93;;;30.20;99.90;;;;;;5032672;28;20517;-71
2023/06/08 04:53:37;;;;;;;18.23;7.30;;;30.30;99.90;;;;;;5027342;28;20518;-71
2023/06/08 04:56:05;;;;;;;13.07;6.28;;;30.30;99.90;;;;;;5021079;28;20490;-70
2023/06/08 04:58:32;;;;;;;10.52;6.57;;;30.30;99.90;;;;;;5013851;28;20022;-70
2023/06/08 05:01:00;;;;;;;12.85;7.45;;;30.30;99.90;;;;;;5014366;28;20112;-69
2023/06/08 05:03:27;;;;;;;15.05;7.07;;;30.40;99.90;;;;;;5014539;28;20026;-69
2023/06/08 05:05:56;;;;;;;10.20;6.97;;;30.50;99.90;;;;;;5014547;28;20479;-69
2023/06/08 05:08:22;;;;;;;10.65;7.20;;;30.60;99.90;;;;;;5014461;28;20113;-70
2023/06/08 05:10:49;;;;;;;7.63;6.40;;;30.60;99.90;;;;;;5014247;28;20053;-70
2023/06/08 05:13:16;;;;;;;10.27;6.85;;;30.70;99.90;;;;;;5014352;28;20014;-69
2023/06/08 05:15:43;;;;;;;8.43;5.97;;;30.80;99.90;;;;;;5014174;28;20109;-69
2023/06/08 05:18:09;;;;;;;9.18;6.95;;;30.70;99.90;;;;;;5014274;28;20018;-70
2023/06/08 05:20:36;;;;;;;9.23;6.75;;;30.60;99.90;;;;;;5013979;28;20418;-70
2023/06/08 05:23:03;;;;;;;11.77;7.03;;;30.70;99.90;;;;;;5013996;28;20036;-70
2023/06/08 05:25:30;;;;;;;12.02;8.15;;;30.80;99.90;;;;;;5014011;28;20036;-68
2023/06/08 05:27:57;;;;;;;10.10;6.68;;;30.80;99.90;;;;;;5014086;28;20383;-69
2023/06/08 05:30:24;;;;;;;13.15;8.40;;;30.70;99.90;;;;;;5013682;28;20086;-74
2023/06/08 05:32:50;;;;;;;13.23;7.97;;;30.70;99.90;;;;;;5022919;28;20021;-70
2023/06/08 05:35:17;;;;;;;18.30;12.05;;;30.70;99.90;;;;;;5032221;28;20022;-69
2023/06/08 05:37:44;;;;;;;26.15;15.07;;;30.60;99.90;;;;;;5032534;28;20013;-69
2023/06/08 05:40:12;;;;;;;19.45;13.85;;;30.60;99.90;;;;;;5032152;28;20091;-69
2023/06/08 05:42:38;;;;;;;14.90;10.88;;;30.60;99.90;;;;;;5032330;28;20048;-70
2023/06/08 05:45:05;;;;;;;15.45;8.82;;;30.60;99.90;;;;;;5031164;28;20022;-69
2023/06/08 05:47:32;;;;;;;14.38;7.20;;;30.50;99.90;;;;;;5031444;28;20022;-69
2023/06/08 05:49:59;;;;;;;9.85;5.65;;;30.50;99.90;;;;;;5029456;28;20381;-70
2023/06/08 05:52:26;;;;;;;10.68;5.90;;;30.40;99.90;;;;;;5032048;28;20017;-71
2023/06/08 05:54:52;;;;;;;11.98;6.43;;;30.40;99.90;;;;;;5035304;28;20067;-69
2023/06/08 05:57:20;;;;;;;11.35;6.30;;;30.40;99.90;;;;;;5032300;28;20450;-70
2023/06/08 05:59:46;;;;;;;11.13;7.15;;;30.40;99.90;;;;;;5035295;28;20088;-71
2023/06/08 06:02:13;;;;;;;12.77;7.55;;;30.40;99.90;;;;;;5035437;28;20251;-71
2023/06/08 06:04:40;;;;;;;12.98;7.68;;;30.40;99.90;;;;;;5036049;28;20459;-71
2023/06/08 06:07:07;;;;;;;12.65;7.40;;;30.40;99.90;;;;;;5032498;28;20079;-71
2023/06/08 06:09:34;;;;;;;14.23;6.57;;;30.40;99.90;;;;;;5034502;28;20014;-72
2023/06/08 06:12:02;;;;;;;8.88;5.70;;;30.50;99.90;;;;;;5037150;28;20071;-71
2023/06/08 06:14:39;;;;;;;9.43;5.05;;;30.50;99.90;;;;;;5036210;28;20071;-71
2023/06/08 06:17:07;;;;;;;6.53;4.53;;;30.50;99.90;;;;;;5035718;28;20021;-73
2023/06/08 06:19:36;;;;;;;11.88;5.22;;;30.60;99.90;;;;;;5032902;28;20017;-71
2023/06/08 06:22:05;;;;;;;12.38;5.10;;;30.60;99.90;;;;;;5035821;28;20025;-71
2023/06/08 06:24:32;;;;;;;8.48;4.65;;;30.70;99.90;;;;;;5035745;28;20017;-72
2023/06/08 06:26:59;;;;;;;9.25;4.70;;;30.60;99.90;;;;;;5034019;28;20452;-70
2023/06/08 06:29:30;;;;;;;10.15;6.07;;;30.70;99.90;;;;;;5035451;28;20075;-71
2023/06/08 06:31:57;;;;;;;10.85;5.82;;;30.70;99.90;;;;;;5033454;28;20057;-72
2023/06/08 06:34:24;;;;;;;8.80;5.88;;;30.70;99.90;;;;;;5035523;28;20024;-73
2023/06/08 06:36:50;;;;;;;10.98;6.93;;;30.70;99.90;;;;;;5035568;28;20017;-71
2023/06/08 06:39:19;;;;;;;8.57;4.82;;;30.70;99.90;;;;;;5035378;28;20125;-71
2023/06/08 06:41:46;;;;;;;8.45;3.85;;;30.70;99.90;;;;;;5035499;28;20028;-72
2023/06/08 06:44:12;;;;;;;7.50;3.60;;;30.70;99.90;;;;;;5035355;28;20017;-71
2023/06/08 06:46:40;;;;;;;5.97;4.20;;;30.70;99.90;;;;;;5035433;28;20356;-70
2023/06/08 06:49:06;;;;;;;9.00;4.38;;;30.70;99.90;;;;;;5035074;28;20013;-71
2023/06/08 06:51:33;;;;;;;11.25;4.47;;;30.70;99.90;;;;;;5036113;28;20037;-71
2023/06/08 06:54:00;;;;;;;8.75;4.03;;;30.70;99.90;;;;;;5035990;28;20022;-70
2023/06/08 06:56:27;;;;;;;9.13;4.20;;;30.80;99.90;;;;;;5034470;28;20025;-70
2023/06/08 06:58:55;;;;;;;6.55;3.80;;;30.80;99.90;;;;;;5033812;28;20045;-71
2023/06/08 07:01:23;;;;;;;7.82;4.03;;;30.70;99.90;;;;;;5033336;28;20431;-72
2023/06/08 07:03:51;;;;;;;10.15;3.45;;;30.70;99.90;;;;;;5033914;28;20025;-72
2023/06/08 07:06:22;;;;;;;9.90;4.55;;;30.70;99.90;;;;;;5034771;28;20099;-72
2023/06/08 07:08:49;;;;;;;10.85;6.13;;;30.70;99.90;;;;;;5034776;28;20033;-72
2023/06/08 07:11:16;;;;;;;6.63;4.72;;;30.80;99.90;;;;;;5034478;28;20083;-70
2023/06/08 07:13:43;;;;;;;12.07;4.57;;;30.80;99.90;;;;;;5034531;28;20079;-70
2023/06/08 07:16:09;;;;;;;7.00;4.05;;;30.80;99.90;;;;;;5034538;28;20022;-69
2023/06/08 07:18:37;;;;;;;6.82;3.92;;;30.70;99.90;;;;;;5034331;28;20423;-70
2023/06/08 07:21:03;;;;;;;11.70;5.90;;;30.70;99.90;;;;;;5034476;28;20021;-70
2023/06/08 07:23:30;;;;;;;10.02;4.75;;;30.70;99.90;;;;;;5032374;28;20030;-70
2023/06/08 07:25:57;;;;;;;7.10;4.65;;;30.70;99.90;;;;;;5024571;28;20463;-71
2023/06/08 07:28:24;;;;;;;10.15;5.32;;;30.70;99.90;;;;;;5015989;28;20461;-74
2023/06/08 07:30:50;;;;;;;10.40;6.38;;;30.60;99.90;;;;;;5015661;28;20395;-75
2023/06/08 07:33:17;;;;;;;7.57;4.50;;;30.60;99.90;;;;;;5015480;28;20026;-69
2023/06/08 07:35:44;;;;;;;7.15;4.22;;;30.50;99.90;;;;;;5016106;28;20018;-70
2023/06/08 07:38:11;;;;;;;12.90;6.80;;;30.40;99.90;;;;;;5015559;28;20080;-73
2023/06/08 07:40:37;;;;;;;8.38;4.35;;;30.40;99.90;;;;;;5015401;28;20053;-73
2023/06/08 07:43:04;;;;;;;12.05;6.32;;;30.10;99.90;;;;;;5015594;28;20494;-71
2023/06/08 07:45:32;;;;;;;13.05;5.13;;;29.90;99.90;;;;;;5015511;28;20029;-71
2023/06/08 07:47:58;;;;;;;10.43;6.55;;;29.80;99.90;;;;;;5015024;28;20108;-69
2023/06/08 07:50:25;;;;;;;13.52;5.53;;;29.80;99.90;;;;;;5015423;28;20467;-71
2023/06/08 07:52:52;;;;;;;14.52;8.23;;;29.70;99.90;;;;;;5015187;28;20502;-70
2023/06/08 07:55:18;;;;;;;14.63;10.63;;;29.60;99.90;;;;;;5026181;28;20025;-69
2023/06/08 07:57:45;;;;;;;9.85;6.93;;;29.50;99.90;;;;;;5014850;28;20061;-68
2023/06/08 08:00:12;;;;;;;10.05;5.35;;;29.40;99.90;;;;;;5014978;28;20018;-67
2023/06/08 08:02:39;;;;;;;10.15;5.10;;;29.40;99.90;;;;;;5014961;28;20018;-68
2023/06/08 08:05:08;;;;;;;11.52;6.93;;;29.20;99.90;;;;;;5013996;28;20123;-68
2023/06/08 08:07:36;;;;;;;12.65;6.13;;;29.00;99.90;;;;;;5013740;28;20133;-68
2023/06/08 08:10:04;;;;;;;13.50;6.28;;;29.10;99.90;;;;;;5013622;28;20133;-70
2023/06/08 08:12:31;;;;;;;12.15;5.75;;;29.00;99.90;;;;;;5013746;28;20022;-68
2023/06/08 08:14:58;;;;;;;14.30;6.43;;;29.00;99.90;;;;;;5013353;28;20546;-69
2023/06/08 08:17:25;;;;;;;9.32;6.57;;;29.10;99.90;;;;;;5013802;28;20095;-67
2023/06/08 08:19:51;;;;;;;10.80;6.55;;;29.00;99.90;;;;;;5013857;28;20022;-70
2023/06/08 08:22:18;;;;;;;13.43;7.47;;;29.00;99.90;;;;;;5013316;28;20033;-68
2023/06/08 08:24:45;;;;;;;9.10;7.40;;;29.00;99.90;;;;;;5013882;28;20184;-67
2023/06/08 08:27:12;;;;;;;9.52;5.72;;;28.90;99.90;;;;;;5015900;28;20079;-69
2023/06/08 08:29:39;;;;;;;18.65;10.52;;;28.90;99.90;;;;;;5014401;28;20737;-68
2023/06/08 08:32:07;;;;;;;23.77;13.63;;;28.90;99.90;;;;;;5026075;28;20471;-68
2023/06/08 08:34:33;;;;;;;22.17;10.38;;;28.90;99.90;;;;;;5038135;28;20413;-67
2023/06/08 08:37:00;;;;;;;12.82;5.97;;;29.00;99.90;;;;;;5053024;28;20021;-70
2023/06/08 08:39:27;;;;;;;13.63;5.00;;;29.00;99.90;;;;;;5053243;28;20063;-69
2023/06/08 08:41:57;;;;;;;9.18;4.88;;;28.70;99.90;;;;;;5052644;28;20054;-69
2023/06/08 08:44:24;;;;;;;7.45;4.63;;;28.70;99.90;;;;;;5052924;28;20508;-70
2023/06/08 08:46:52;;;;;;;10.48;5.10;;;28.60;99.90;;;;;;5052402;28;20036;-68
2023/06/08 08:49:21;;;;;;;10.93;5.35;;;28.70;99.90;;;;;;5052220;28;20116;-69
2023/06/08 08:51:51;;;;;;;10.27;5.85;;;28.50;99.90;;;;;;5052611;28;20033;-70
2023/06/08 08:54:25;;;;;;;8.70;4.88;;;28.50;99.90;;;;;;5052764;28;20049;-69
2023/06/08 08:56:55;;;;;;;7.30;4.45;;;28.50;99.90;;;;;;5052796;28;20029;-69
2023/06/08 08:59:23;;;;;;;8.10;4.82;;;28.60;99.90;;;;;;5052717;28;20432;-69
2023/06/08 09:01:49;;;;;;;6.50;4.05;;;28.60;99.90;;;;;;5052680;28;20025;-69
2023/06/08 09:04:16;;;;;;;6.18;3.63;;;28.60;99.90;;;;;;5052267;28;20032;-70
2023/06/08 09:06:48;;;;;;;7.72;4.28;;;28.70;99.90;;;;;;5052387;28;20382;-70
2023/06/08 09:09:16;;;;;;;6.45;4.45;;;28.70;99.90;;;;;;5050892;28;20021;-70
2023/06/08 09:11:47;;;;;;;8.57;5.05;;;28.70;99.90;;;;;;5052227;28;20025;-70
2023/06/08 09:14:14;;;;;;;8.90;5.88;;;28.70;99.90;;;;;;5050894;28;20017;-69
2023/06/08 09:16:43;;;;;;;11.32;5.68;;;28.70;99.90;;;;;;5050661;28;20032;-70
2023/06/08 09:19:10;;;;;;;11.50;6.45;;;28.70;99.90;;;;;;5023464;28;20507;-70
2023/06/08 09:21:40;;;;;;;9.63;5.70;;;28.70;99.90;;;;;;5012778;28;20084;-70
2023/06/08 09:24:12;;;;;;;14.38;5.80;;;28.70;99.90;;;;;;5012800;28;20053;-70
2023/06/08 09:26:42;;;;;;;7.55;5.70;;;28.90;99.90;;;;;;5012100;28;20018;-70
2023/06/08 09:29:09;;;;;;;10.80;6.03;;;28.90;99.90;;;;;;5010707;28;20486;-68
2023/06/08 09:31:39;;;;;;;9.73;5.82;;;28.90;99.90;;;;;;5011918;28;20108;-68
2023/06/08 09:34:07;;;;;;;12.10;5.18;;;29.00;99.90;;;;;;5012233;28;20022;-68
2023/06/08 09:36:37;;;;;;;10.48;4.82;;;28.80;99.90;;;;;;5011971;28;20030;-69
2023/06/08 09:39:05;;;;;;;8.68;5.15;;;28.80;99.90;;;;;;5011767;28;20014;-69
2023/06/08 09:41:33;;;;;;;15.30;6.88;;;28.90;99.90;;;;;;5011949;28;20026;-69
2023/06/08 09:44:02;;;;;;;9.02;6.30;;;28.90;99.90;;;;;;5012153;28;20030;-68
2023/06/08 09:46:45;;;;;;;15.23;7.97;;;28.90;99.90;;;;;;5012360;28;20076;-69
2023/06/08 09:49:14;;;;;;;15.52;8.00;;;28.80;99.90;;;;;;5012474;28;20383;-69
2023/06/08 09:51:47;;;;;;;15.90;9.10;;;28.80;99.90;;;;;;5012104;28;20062;-67
2023/06/08 09:54:16;;;;;;;19.35;10.13;;;28.80;99.90;;;;;;5011904;28;20022;-66
2023/06/08 09:56:48;;;;;;;19.80;10.88;;;28.80;99.90;;;;;;5011876;28;20025;-67
2023/06/08 09:59:17;;;;;;;19.92;9.82;;;28.90;99.90;;;;;;5029909;28;20402;-67
2023/06/08 10:01:55;;;;;;;18.13;9.00;;;28.70;99.90;;;;;;5031566;28;20041;-67
2023/06/08 10:04:31;;;;;;;15.30;9.45;;;28.80;99.90;;;;;;5031339;28;20099;-67
2023/06/08 10:07:03;;;;;;;14.10;8.77;;;28.70;99.90;;;;;;5031609;28;20037;-69
2023/06/08 10:09:34;;;;;;;13.70;8.15;;;28.80;99.90;;;;;;5031842;28;20483;-68
2023/06/08 10:12:02;;;;;;;15.73;8.63;;;28.80;99.90;;;;;;5031976;28;20033;-69
2023/06/08 10:14:29;;;;;;;21.15;9.40;;;28.90;99.90;;;;;;5031830;28;20036;-68
2023/06/08 10:16:57;;;;;;;17.13;8.95;;;28.70;99.90;;;;;;5030913;28;20402;-67
2023/06/08 10:19:24;;;;;;;13.43;8.52;;;28.90;99.90;;;;;;5031205;28;20442;-68
2023/06/08 10:21:52;;;;;;;13.48;8.43;;;28.80;99.90;;;;;;5031330;28;20026;-67
2023/06/08 10:24:21;;;;;;;14.63;7.85;;;28.80;99.90;;;;;;5031091;28;20048;-67
2023/06/08 10:26:50;;;;;;;17.92;10.15;;;28.70;99.90;;;;;;5031085;28;20480;-68
2023/06/08 10:29:26;;;;;;;17.88;9.57;;;28.90;99.90;;;;;;5031220;28;20045;-73
2023/06/08 10:31:52;;;;;;;18.58;10.18;;;28.80;99.90;;;;;;5031103;28;20049;-69
2023/06/08 10:34:19;;;;;;;25.38;11.27;;;28.80;99.90;;;;;;5030970;28;20017;-68
2023/06/08 10:36:46;;;;;;;15.50;10.00;;;28.80;99.90;;;;;;5031723;28;20024;-69
2023/06/08 10:39:15;;;;;;;25.13;11.95;;;28.80;99.90;;;;;;5034485;28;20492;-69
2023/06/08 10:41:44;;;;;;;22.77;12.70;;;28.70;99.90;;;;;;5028330;28;20026;-68
2023/06/08 10:44:31;;;;;;;25.80;11.52;;;28.80;99.90;;;;;;5015349;28;20567;-69
2023/06/08 10:47:00;;;;;;;15.88;9.60;;;28.60;99.90;;;;;;5014593;28;20485;-70
2023/06/08 10:49:31;;;;;;;19.63;10.32;;;28.60;99.90;;;;;;5014788;28;20495;-69
2023/06/08 10:52:00;;;;;;;20.05;12.65;;;28.60;99.90;;;;;;5016035;28;20065;-72
2023/06/08 10:54:28;;;;;;;28.23;15.20;;;28.80;99.90;;;;;;5016091;28;20022;-72
2023/06/08 10:56:56;;;;;;;30.73;15.60;;;28.70;99.90;;;;;;5016175;28;20018;-69
2023/06/08 10:59:28;;;;;;;28.05;17.05;;;28.70;99.90;;;;;;5016269;28;20105;-70
2023/06/08 11:01:55;;;;;;;25.75;17.40;;;28.80;99.90;;;;;;5016643;28;20511;-70
2023/06/08 11:04:28;;;;;;;40.33;21.45;;;28.60;99.90;;;;;;5016295;28;20026;-71
2023/06/08 11:06:58;;;;;;;37.10;28.65;;;28.60;99.90;;;;;;5014049;28;20026;-71
2023/06/08 11:09:25;;;;;;;25.35;21.55;;;28.70;99.90;;;;;;5016014;28;20052;-75
2023/06/08 11:11:52;;;;;;;21.13;14.85;;;28.60;99.90;;;;;;5018112;28;20378;-73
2023/06/08 11:14:21;;;;;;;27.67;15.70;;;28.60;99.90;;;;;;5023153;28;20049;-70
2023/06/08 11:16:52;;;;;;;37.10;25.75;;;28.60;99.90;;;;;;5015955;28;20022;-70
2023/06/08 11:19:22;;;;;;;40.05;27.00;;;28.60;99.90;;;;;;5015959;28;20014;-68
2023/06/08 11:21:54;;;;;;;41.53;25.83;;;28.50;99.90;;;;;;5015787;28;20538;-68
2023/06/08 11:24:31;;;;;;;42.75;25.77;;;28.50;99.90;;;;;;5015914;28;20028;-70
2023/06/08 11:26:59;;;;;;;30.13;20.48;;;28.40;99.90;;;;;;5016131;28;20030;-69
2023/06/08 11:29:27;;;;;;;35.30;18.67;;;28.40;99.90;;;;;;5016183;28;20030;-72
2023/06/08 11:31:55;;;;;;;37.33;20.73;;;28.40;99.90;;;;;;5016229;28;20566;-70
2023/06/08 11:34:22;;;;;;;35.55;22.15;;;28.50;99.90;;;;;;5015321;28;20022;-70
2023/06/08 11:36:49;;;;;;;33.60;19.13;;;28.40;99.90;;;;;;5015709;28;20018;-69
2023/06/08 11:39:16;;;;;;;27.85;14.65;;;28.40;99.90;;;;;;5015788;28;20018;-68
2023/06/08 11:41:46;;;;;;;21.10;10.77;;;28.40;99.90;;;;;;5015606;28;20025;-68
2023/06/08 11:44:14;;;;;;;14.25;8.75;;;28.40;99.90;;;;;;5015777;28;20025;-70
2023/06/08 11:46:41;;;;;;;144.23;103.28;;;28.40;99.90;;;;;;5016019;28;20045;-66
2023/06/08 11:49:10;;;;;;;40.38;20.92;;;28.40;99.90;;;;;;5015519;28;20022;-68
2023/06/08 11:51:42;;;;;;;13.50;9.02;;;28.40;99.90;;;;;;5015434;28;20541;-68
2023/06/08 11:54:09;;;;;;;29.90;14.32;;;28.40;99.90;;;;;;5015235;28;20387;-67
2023/06/08 11:56:36;;;;;;;26.42;12.40;;;28.40;99.90;;;;;;5015102;28;20026;-67
2023/06/08 11:59:05;;;;;;;17.50;11.05;;;28.40;99.90;;;;;;5015221;28;20022;-67
2023/06/08 12:01:32;;;;;;;25.30;14.15;;;28.30;99.90;;;;;;5015165;28;20026;-67
2023/06/08 12:03:59;;;;;;;27.08;13.05;;;28.30;99.90;;;;;;5015222;28;20084;-68
2023/06/08 12:06:27;;;;;;;23.00;12.35;;;28.30;99.90;;;;;;5014842;28;20022;-66
2023/06/08 12:08:54;;;;;;;24.52;13.00;;;28.20;99.90;;;;;;5018239;28;20079;-67
2023/06/08 12:11:21;;;;;;;22.40;13.25;;;28.20;99.90;;;;;;5033718;28;20025;-66
2023/06/08 12:13:51;;;;;;;29.85;15.32;;;28.20;99.90;;;;;;5033682;28;20470;-66
2023/06/08 12:16:18;;;;;;;22.58;11.85;;;28.10;99.90;;;;;;5031284;28;20021;-66
2023/06/08 12:18:45;;;;;;;21.67;11.05;;;28.20;99.90;;;;;;5034693;28;20510;-70
2023/06/08 12:21:15;;;;;;;20.70;10.85;;;28.20;99.90;;;;;;5034984;28;20029;-67
2023/06/08 12:23:43;;;;;;;20.83;11.15;;;28.10;99.90;;;;;;5034747;28;20030;-67
2023/06/08 12:26:09;;;;;;;23.40;11.52;;;28.30;99.90;;;;;;5035013;28;20114;-68
2023/06/08 12:28:37;;;;;;;25.52;11.68;;;28.30;99.90;;;;;;5034216;28;20056;-66
2023/06/08 12:31:04;;;;;;;37.95;23.38;;;28.30;99.90;;;;;;5034020;28;20037;-66
2023/06/08 12:33:31;;;;;;;45.90;28.55;;;28.30;99.90;;;;;;5034324;28;20044;-67
2023/06/08 12:35:58;;;;;;;43.50;30.25;;;28.30;99.90;;;;;;5034520;28;20021;-68
2023/06/08 12:38:25;;;;;;;58.80;43.28;;;28.40;99.90;;;;;;5027685;28;20054;-64
2023/06/08 12:40:52;;;;;;;147.38;105.50;;;28.20;99.90;;;;;;5021587;28;20022;-68
2023/06/08 12:43:20;;;;;;;53.92;40.10;;;28.30;99.90;;;;;;5014000;28;20545;-68
2023/06/08 12:45:48;;;;;;;28.83;18.95;;;28.30;99.90;;;;;;5014335;28;20029;-66
2023/06/08 12:48:15;;;;;;;26.27;13.88;;;28.30;99.90;;;;;;5014858;28;20056;-68
2023/06/08 12:50:42;;;;;;;44.20;32.50;;;28.40;99.90;;;;;;5015746;28;20018;-68
2023/06/08 12:53:09;;;;;;;22.73;15.60;;;28.30;99.90;;;;;;5015644;28;20111;-66